首页
METAR-TAF:

METAR-TAF

机场 :

八尾機場

八尾, 日本

纬度: 34-36N, 经度: 135-36E, 海拔: 10米

当前天气观测

该预报发布于7小时和1分钟前的10:00 UTC
风速3节,风向南转南东,在东转东南之间变化
温度 11°C
湿度 71%
气压 1023 hPa
能见度10公里或以上
少量云层高于3000英尺
多云层高于6000英尺

METAR: RJOY 291000Z 16003KT 110V190 9999 FEW030 BKN060 11/06 Q1023

时间: 02:01 (17:01 UTC)


TAF: 丢失

超过4000个机场的气象观测和天气预报(METAR&TAF报告)。

可查询的气象台以黄色和红色小点在地图上表示。

将鼠标移到小点上方,可查看气象台名称。

然后点击查看天气观测和预报。

如需切换地图:点击带黑十字的绿色按钮放大地图;点击带横线的绿色按钮缩小地图;或者点击绿色箭头查看邻近地区的地图。


METAR-TAF: